createdAt,value
2017-12-17T00:00:42.021Z,0.80
2017-12-17T00:03:09.577Z,0.80
2017-12-17T00:05:37.119Z,0.90
2017-12-17T00:08:04.676Z,1.00
2017-12-17T00:10:32.209Z,1.00
2017-12-17T00:13:00.525Z,1.00
2017-12-17T00:15:28.829Z,1.00
2017-12-17T00:17:56.377Z,1.00
2017-12-17T00:20:24.683Z,1.00
2017-12-17T00:22:52.247Z,1.00
2017-12-17T00:25:19.781Z,0.90
2017-12-17T00:27:47.311Z,0.90
2017-12-17T00:30:14.865Z,0.90
2017-12-17T00:32:42.426Z,0.90
2017-12-17T00:35:09.969Z,0.90
2017-12-17T00:37:37.509Z,0.90
2017-12-17T00:40:05.103Z,0.90
2017-12-17T00:42:32.635Z,0.90
2017-12-17T00:45:00.181Z,0.90
2017-12-17T00:47:27.714Z,1.00
2017-12-17T00:49:55.284Z,1.00
2017-12-17T00:52:22.888Z,1.00
2017-12-17T00:54:50.454Z,1.10
2017-12-17T00:57:18.040Z,1.10
2017-12-17T00:59:46.342Z,1.00
2017-12-17T01:02:13.874Z,1.00
2017-12-17T01:04:42.197Z,1.00
2017-12-17T01:07:09.748Z,1.00
2017-12-17T01:09:37.292Z,1.00
2017-12-17T01:12:04.845Z,1.00
2017-12-17T01:14:33.147Z,1.10
2017-12-17T01:17:00.690Z,1.10
2017-12-17T01:19:28.275Z,1.20
2017-12-17T01:21:55.803Z,1.20
2017-12-17T01:24:23.348Z,1.10
2017-12-17T01:26:51.653Z,1.10
2017-12-17T01:29:19.220Z,1.10
2017-12-17T01:31:46.741Z,1.10
2017-12-17T01:34:15.042Z,1.10
2017-12-17T01:36:42.594Z,1.10
2017-12-17T01:39:10.919Z,1.10
2017-12-17T01:41:38.460Z,1.10
2017-12-17T01:44:06.013Z,1.20
2017-12-17T01:46:33.574Z,1.10
2017-12-17T01:49:01.124Z,1.10
2017-12-17T01:51:28.663Z,1.10
2017-12-17T01:53:57.005Z,1.10
2017-12-17T01:56:24.527Z,1.10
2017-12-17T01:58:52.081Z,1.20
2017-12-17T02:01:19.616Z,1.10
2017-12-17T02:03:47.952Z,1.10
2017-12-17T02:06:16.436Z,1.00
2017-12-17T02:08:43.952Z,1.00
2017-12-17T02:11:11.496Z,1.10
2017-12-17T02:13:39.060Z,1.10
2017-12-17T02:16:06.616Z,1.10
2017-12-17T02:18:34.166Z,1.10
2017-12-17T02:21:01.682Z,1.10
2017-12-17T02:23:29.969Z,1.10
2017-12-17T02:25:57.508Z,1.10
2017-12-17T02:28:25.805Z,1.10
2017-12-17T02:30:53.355Z,1.10
2017-12-17T02:33:21.658Z,1.10
2017-12-17T02:35:49.234Z,1.10
2017-12-17T02:38:16.797Z,1.10
2017-12-17T02:40:44.350Z,1.10
2017-12-17T02:43:11.898Z,1.10
2017-12-17T02:45:39.467Z,1.10
2017-12-17T02:48:07.010Z,1.10
2017-12-17T02:50:34.549Z,1.10
2017-12-17T02:53:02.861Z,1.00
2017-12-17T02:55:30.388Z,1.00
2017-12-17T02:57:58.717Z,1.20
2017-12-17T03:00:26.237Z,1.20
2017-12-17T03:02:53.793Z,1.20
2017-12-17T03:05:21.353Z,1.10
2017-12-17T03:07:48.904Z,1.00
2017-12-17T03:10:17.220Z,1.10
2017-12-17T03:12:44.745Z,1.10
2017-12-17T03:15:12.292Z,1.10
2017-12-17T03:17:40.594Z,1.20
2017-12-17T03:20:08.145Z,1.20
2017-12-17T03:22:35.683Z,1.20
2017-12-17T03:25:04.016Z,1.20
2017-12-17T03:27:31.546Z,1.20
2017-12-17T03:29:59.101Z,1.10
2017-12-17T03:32:26.644Z,1.20
2017-12-17T03:34:54.972Z,1.10
2017-12-17T03:37:22.520Z,1.20
2017-12-17T03:39:50.092Z,1.10
2017-12-17T03:42:17.638Z,1.20
2017-12-17T03:44:45.190Z,1.20
2017-12-17T03:47:12.720Z,1.20
2017-12-17T03:49:41.294Z,1.20
2017-12-17T03:52:08.821Z,1.20
2017-12-17T03:54:36.350Z,1.10
2017-12-17T03:57:03.921Z,1.10
2017-12-17T03:59:31.442Z,1.10
2017-12-17T04:01:59.757Z,1.00
2017-12-17T04:04:27.301Z,1.00
2017-12-17T04:06:54.836Z,1.00
2017-12-17T04:09:23.124Z,1.10
2017-12-17T04:11:51.474Z,1.10
2017-12-17T04:14:18.981Z,1.10
2017-12-17T04:16:46.532Z,1.00
2017-12-17T04:19:14.057Z,1.00
2017-12-17T04:21:41.594Z,0.90
2017-12-17T04:24:09.119Z,0.90
2017-12-17T04:26:36.655Z,0.90
2017-12-17T04:29:04.964Z,0.80
2017-12-17T04:31:32.510Z,0.80
2017-12-17T04:34:00.049Z,0.80
2017-12-17T04:36:28.357Z,0.80
2017-12-17T04:38:55.868Z,0.80
2017-12-17T04:41:23.446Z,0.80
2017-12-17T04:43:51.751Z,0.90
2017-12-17T04:46:19.297Z,0.80
2017-12-17T04:48:47.630Z,0.90
2017-12-17T04:51:15.158Z,0.90
2017-12-17T04:53:42.698Z,0.80
2017-12-17T04:56:10.226Z,0.90
2017-12-17T04:58:37.940Z,0.80
2017-12-17T05:01:05.499Z,0.90
2017-12-17T05:03:33.089Z,0.90
2017-12-17T05:06:00.723Z,0.80
2017-12-17T05:08:28.265Z,0.90
2017-12-17T05:10:55.846Z,0.90
2017-12-17T05:13:23.360Z,0.90
2017-12-17T05:15:51.665Z,0.80
2017-12-17T05:18:19.223Z,0.80
2017-12-17T05:20:46.813Z,0.80
2017-12-17T05:23:15.056Z,0.70
2017-12-17T05:25:42.597Z,0.70
2017-12-17T05:28:10.891Z,0.70
2017-12-17T05:30:38.444Z,0.70
2017-12-17T05:33:06.737Z,0.60
2017-12-17T05:35:34.297Z,0.60
2017-12-17T05:38:01.838Z,0.60
2017-12-17T05:40:30.157Z,0.60
2017-12-17T05:42:57.682Z,0.60
2017-12-17T05:45:25.242Z,0.70
2017-12-17T05:47:52.778Z,0.60
2017-12-17T05:50:20.325Z,0.70
2017-12-17T05:52:47.853Z,0.70
2017-12-17T05:55:15.425Z,0.70
2017-12-17T05:57:42.949Z,0.70
2017-12-17T06:00:10.485Z,0.70
2017-12-17T06:02:38.769Z,0.80
2017-12-17T06:05:07.066Z,0.60
2017-12-17T06:07:34.636Z,0.60
2017-12-17T06:10:02.184Z,0.60
2017-12-17T06:12:29.724Z,0.60
2017-12-17T06:14:57.289Z,0.60
2017-12-17T06:17:25.588Z,0.60
2017-12-17T06:19:53.137Z,0.50
2017-12-17T06:22:21.439Z,0.60
2017-12-17T06:24:48.976Z,0.60
2017-12-17T06:27:17.288Z,0.50
2017-12-17T06:29:44.826Z,0.50
2017-12-17T06:32:12.369Z,0.50
2017-12-17T06:34:40.666Z,0.60
2017-12-17T06:37:08.225Z,0.60
2017-12-17T06:39:35.761Z,0.50
2017-12-17T06:42:04.090Z,0.50
2017-12-17T06:44:31.617Z,0.50
2017-12-17T06:46:59.169Z,0.60
2017-12-17T06:49:26.712Z,0.60
2017-12-17T06:51:55.026Z,0.70
2017-12-17T06:54:22.545Z,0.70
2017-12-17T06:56:50.869Z,0.60
2017-12-17T06:59:18.402Z,0.60
2017-12-17T07:01:45.953Z,0.60
2017-12-17T07:04:14.273Z,0.70
2017-12-17T07:06:41.833Z,0.70
2017-12-17T07:09:09.482Z,0.60
2017-12-17T07:11:37.033Z,0.70
2017-12-17T07:14:04.590Z,0.70
2017-12-17T07:16:32.134Z,0.70
2017-12-17T07:19:00.449Z,0.60
2017-12-17T07:21:27.998Z,0.60
2017-12-17T07:23:55.550Z,0.80
2017-12-17T07:26:23.096Z,0.80
2017-12-17T07:28:50.628Z,0.80
2017-12-17T07:31:18.173Z,0.70
2017-12-17T07:33:45.712Z,0.70
2017-12-17T07:36:13.242Z,0.70
2017-12-17T07:38:40.776Z,0.70
2017-12-17T07:41:09.111Z,0.80
2017-12-17T07:43:36.653Z,0.80
2017-12-17T07:46:04.216Z,0.80
2017-12-17T07:48:31.744Z,0.80
2017-12-17T07:51:00.072Z,0.80
2017-12-17T07:53:27.597Z,0.80
2017-12-17T07:55:55.140Z,0.70
2017-12-17T07:58:23.477Z,0.70
2017-12-17T08:00:50.997Z,0.70
2017-12-17T08:03:18.568Z,0.80
2017-12-17T08:05:46.104Z,0.80
2017-12-17T08:08:14.545Z,0.80
2017-12-17T08:10:42.078Z,0.70
2017-12-17T08:13:09.637Z,0.80
2017-12-17T08:15:37.181Z,0.80
2017-12-17T08:18:04.737Z,0.90
2017-12-17T08:20:32.284Z,0.80
2017-12-17T08:22:59.873Z,0.80
2017-12-17T08:25:27.396Z,0.80
2017-12-17T08:27:54.949Z,0.80
2017-12-17T08:30:23.274Z,0.90
2017-12-17T08:32:50.849Z,0.90
2017-12-17T08:35:18.401Z,0.90
2017-12-17T08:37:45.925Z,0.90
2017-12-17T08:40:13.495Z,0.90
2017-12-17T08:42:41.016Z,1.00
2017-12-17T08:45:09.343Z,0.90
2017-12-17T08:47:36.886Z,0.90
2017-12-17T08:50:04.445Z,0.90
2017-12-17T08:52:31.976Z,1.00
2017-12-17T08:55:00.297Z,1.00
2017-12-17T08:57:27.836Z,0.90
2017-12-17T08:59:55.394Z,1.00
2017-12-17T09:02:23.053Z,1.00
2017-12-17T09:04:50.611Z,1.00
2017-12-17T09:07:18.141Z,1.10
2017-12-17T09:09:47.186Z,1.10
2017-12-17T09:12:15.689Z,1.00
2017-12-17T09:14:44.033Z,1.10
2017-12-17T09:17:11.709Z,1.10
2017-12-17T09:19:39.253Z,1.00
2017-12-17T09:22:08.055Z,1.00
2017-12-17T09:24:35.627Z,1.00
2017-12-17T09:27:03.165Z,1.10
2017-12-17T09:29:30.701Z,1.10
2017-12-17T09:31:59.021Z,1.10
2017-12-17T09:34:26.553Z,1.10
2017-12-17T09:36:54.115Z,1.10
2017-12-17T09:39:21.673Z,1.00
2017-12-17T09:41:51.153Z,1.10
2017-12-17T09:44:19.489Z,1.50
2017-12-17T09:46:47.029Z,1.50
2017-12-17T09:49:14.557Z,1.70
2017-12-17T09:51:42.102Z,1.90
2017-12-17T09:54:09.661Z,2.10
2017-12-17T09:56:37.200Z,2.10
2017-12-17T09:59:06.082Z,2.20
2017-12-17T10:01:34.390Z,2.20
2017-12-17T10:04:01.958Z,2.10
2017-12-17T10:06:29.509Z,2.20
2017-12-17T10:08:57.059Z,2.50
2017-12-17T10:11:25.464Z,3.40
2017-12-17T10:13:53.020Z,3.40
2017-12-17T10:16:20.557Z,3.60
2017-12-17T10:18:48.841Z,6.10
2017-12-17T10:21:16.411Z,6.10
2017-12-17T10:23:45.452Z,5.60
2017-12-17T10:26:13.011Z,5.60
2017-12-17T10:28:40.542Z,6.10
2017-12-17T10:31:08.872Z,5.10
2017-12-17T10:33:36.397Z,5.10
2017-12-17T10:36:04.068Z,4.80
2017-12-17T10:38:31.614Z,4.60
2017-12-17T10:40:59.162Z,3.90
2017-12-17T10:43:27.450Z,4.90
2017-12-17T10:45:54.998Z,4.90
2017-12-17T10:48:22.524Z,4.90
2017-12-17T10:50:50.114Z,4.20
2017-12-17T10:53:17.641Z,4.50
2017-12-17T10:55:45.185Z,4.60
2017-12-17T10:58:12.765Z,4.60
2017-12-17T11:00:41.069Z,4.40
2017-12-17T11:03:08.616Z,4.40
2017-12-17T11:05:36.916Z,4.30
2017-12-17T11:08:05.950Z,4.20
2017-12-17T11:10:33.484Z,5.00
2017-12-17T11:13:01.046Z,6.00
2017-12-17T11:15:28.595Z,7.30
2017-12-17T11:17:56.139Z,7.40
2017-12-17T11:20:23.694Z,7.70
2017-12-17T11:22:51.290Z,6.80
2017-12-17T11:25:19.624Z,4.60
2017-12-17T11:27:47.254Z,4.60
2017-12-17T11:30:14.783Z,5.20
2017-12-17T11:32:42.340Z,7.80
2017-12-17T11:35:09.901Z,8.00
2017-12-17T11:37:37.421Z,6.40
2017-12-17T11:40:04.971Z,5.50
2017-12-17T11:42:32.533Z,4.70
2017-12-17T11:45:00.080Z,4.00
2017-12-17T11:47:27.608Z,3.80
2017-12-17T11:49:55.933Z,3.70
2017-12-17T11:52:23.464Z,3.60
2017-12-17T11:54:51.039Z,3.60
2017-12-17T11:57:18.570Z,3.60
2017-12-17T11:59:46.885Z,3.30
2017-12-17T12:02:14.517Z,3.20
2017-12-17T12:04:42.944Z,2.80
2017-12-17T12:07:10.577Z,2.90
2017-12-17T12:09:38.112Z,2.60
2017-12-17T12:12:06.451Z,2.40
2017-12-17T12:14:34.003Z,2.40
2017-12-17T12:17:01.544Z,2.40
2017-12-17T12:19:29.084Z,2.30
2017-12-17T12:21:56.641Z,2.30
2017-12-17T12:24:24.940Z,2.20
2017-12-17T12:26:52.489Z,2.10
2017-12-17T12:29:20.025Z,2.10
2017-12-17T12:31:48.357Z,2.10
2017-12-17T12:34:15.913Z,2.10
2017-12-17T12:36:43.467Z,2.10
2017-12-17T12:39:11.051Z,2.20
2017-12-17T12:41:38.591Z,2.30
2017-12-17T12:44:06.146Z,2.10
2017-12-17T12:46:33.670Z,2.00
2017-12-17T12:49:01.246Z,2.00
2017-12-17T12:51:28.784Z,2.20
2017-12-17T12:53:57.108Z,2.20
2017-12-17T12:56:24.658Z,2.10
2017-12-17T12:58:52.298Z,2.20
2017-12-17T13:01:19.865Z,2.10
2017-12-17T13:03:47.393Z,2.00
2017-12-17T13:06:15.707Z,2.00
2017-12-17T13:08:43.262Z,2.00
2017-12-17T13:11:10.821Z,2.00
2017-12-17T13:13:38.357Z,2.00
2017-12-17T13:16:06.657Z,2.00
2017-12-17T13:18:34.256Z,2.00
2017-12-17T13:21:01.778Z,1.90
2017-12-17T13:23:29.342Z,1.80
2017-12-17T13:25:56.883Z,1.80
2017-12-17T13:28:25.189Z,1.80
2017-12-17T13:30:52.714Z,1.80
2017-12-17T13:33:21.041Z,1.70
2017-12-17T13:35:48.628Z,1.70
2017-12-17T13:38:16.168Z,1.70
2017-12-17T13:40:43.701Z,1.60
2017-12-17T13:43:11.262Z,1.60
2017-12-17T13:45:38.802Z,1.60
2017-12-17T13:48:06.353Z,1.70
2017-12-17T13:50:34.673Z,1.70
2017-12-17T13:53:02.249Z,1.70
2017-12-17T13:55:29.793Z,1.60
2017-12-17T13:57:57.349Z,1.70
2017-12-17T14:00:24.871Z,1.60
2017-12-17T14:02:52.560Z,1.70
2017-12-17T14:05:20.137Z,1.70
2017-12-17T14:07:47.677Z,1.60
2017-12-17T14:10:15.233Z,1.60
2017-12-17T14:12:42.769Z,1.60
2017-12-17T14:15:11.092Z,1.50
2017-12-17T14:17:38.617Z,1.50
2017-12-17T14:20:06.162Z,1.50
2017-12-17T14:22:34.513Z,1.70
2017-12-17T14:25:02.082Z,1.60
2017-12-17T14:27:30.387Z,1.60
2017-12-17T14:29:57.932Z,1.60
2017-12-17T14:32:26.228Z,1.70
2017-12-17T14:34:53.797Z,1.60
2017-12-17T14:37:21.328Z,1.60
2017-12-17T14:39:48.858Z,1.60
2017-12-17T14:42:16.413Z,1.50
2017-12-17T14:44:43.956Z,1.50
2017-12-17T14:47:11.513Z,1.40
2017-12-17T14:49:39.044Z,1.30
2017-12-17T14:52:06.632Z,1.40
2017-12-17T14:54:34.180Z,1.30
2017-12-17T14:57:01.714Z,1.30
2017-12-17T14:59:29.278Z,1.20
2017-12-17T15:01:56.808Z,1.20
2017-12-17T15:04:24.402Z,1.20
2017-12-17T15:06:51.983Z,1.20
2017-12-17T15:09:19.535Z,1.30
2017-12-17T15:11:47.093Z,1.30
2017-12-17T15:14:14.662Z,1.20
2017-12-17T15:16:42.225Z,1.30
2017-12-17T15:19:09.797Z,1.20
2017-12-17T15:21:37.339Z,1.10
2017-12-17T15:24:04.875Z,1.10
2017-12-17T15:26:32.420Z,1.10
2017-12-17T15:29:00.720Z,1.00
2017-12-17T15:31:28.280Z,1.00
2017-12-17T15:33:55.832Z,1.00
2017-12-17T15:36:23.399Z,1.00
2017-12-17T15:38:50.928Z,1.00
2017-12-17T15:41:19.224Z,1.00
2017-12-17T15:43:47.574Z,1.10
2017-12-17T15:46:15.123Z,1.10
2017-12-17T15:48:42.676Z,1.00
2017-12-17T15:51:10.205Z,1.00
2017-12-17T15:53:37.761Z,0.90
2017-12-17T15:56:05.287Z,0.90
2017-12-17T15:58:33.624Z,0.80
2017-12-17T16:01:01.184Z,0.80
2017-12-17T16:03:28.779Z,0.80
2017-12-17T16:05:57.089Z,0.70
2017-12-17T16:08:24.606Z,0.70
2017-12-17T16:10:52.159Z,0.70
2017-12-17T16:13:19.688Z,0.70
2017-12-17T16:15:47.310Z,0.70
2017-12-17T16:18:15.617Z,0.60
2017-12-17T16:20:43.163Z,0.60
2017-12-17T16:23:10.738Z,0.60
2017-12-17T16:25:38.278Z,0.60
2017-12-17T16:28:05.846Z,0.60
2017-12-17T16:30:33.382Z,0.70
2017-12-17T16:33:01.685Z,0.70
2017-12-17T16:35:29.225Z,0.60
2017-12-17T16:37:56.757Z,0.70
2017-12-17T16:40:24.284Z,0.60
2017-12-17T16:42:51.846Z,0.60
2017-12-17T16:45:19.385Z,0.60
2017-12-17T16:47:46.951Z,0.60
2017-12-17T16:50:14.472Z,0.60
2017-12-17T16:52:44.386Z,0.60
2017-12-17T16:55:12.701Z,0.60
2017-12-17T16:57:40.253Z,0.60
2017-12-17T17:00:07.901Z,0.60
2017-12-17T17:02:35.469Z,0.50
2017-12-17T17:05:03.017Z,0.60
2017-12-17T17:07:31.304Z,0.60
2017-12-17T17:09:58.865Z,0.70
2017-12-17T17:12:26.420Z,0.60
2017-12-17T17:14:53.951Z,0.60
2017-12-17T17:17:21.505Z,0.60
2017-12-17T17:19:49.031Z,0.50
2017-12-17T17:22:16.592Z,0.60
2017-12-17T17:24:44.144Z,0.60
2017-12-17T17:27:11.721Z,0.60
2017-12-17T17:29:39.258Z,0.60
2017-12-17T17:32:06.796Z,0.60
2017-12-17T17:34:34.353Z,0.60
2017-12-17T17:37:02.649Z,0.60
2017-12-17T17:39:30.204Z,0.60
2017-12-17T17:41:57.737Z,0.60
2017-12-17T17:44:26.053Z,0.60
2017-12-17T17:46:53.585Z,0.60
2017-12-17T17:49:21.153Z,0.70
2017-12-17T17:51:48.672Z,0.70
2017-12-17T17:54:16.215Z,0.70
2017-12-17T17:56:44.504Z,0.80
2017-12-17T17:59:12.805Z,0.80
2017-12-17T18:01:40.379Z,0.80
2017-12-17T18:04:07.913Z,0.80
2017-12-17T18:06:35.461Z,0.90
2017-12-17T18:09:03.754Z,0.90
2017-12-17T18:11:31.327Z,0.90
2017-12-17T18:13:58.850Z,0.80
2017-12-17T18:16:27.158Z,0.70
2017-12-17T18:18:55.486Z,0.80
2017-12-17T18:21:23.051Z,0.80
2017-12-17T18:23:50.581Z,0.80
2017-12-17T18:26:18.126Z,0.80
2017-12-17T18:28:46.416Z,0.80
2017-12-17T18:31:13.969Z,0.80
2017-12-17T18:33:41.488Z,0.80
2017-12-17T18:36:09.010Z,0.80
2017-12-17T18:38:36.557Z,0.80
2017-12-17T18:41:04.119Z,0.80
2017-12-17T18:43:31.695Z,0.70
2017-12-17T18:45:59.234Z,0.70
2017-12-17T18:48:26.776Z,0.70
2017-12-17T18:50:55.082Z,0.70
2017-12-17T18:53:22.638Z,0.60
2017-12-17T18:55:50.195Z,0.70
2017-12-17T18:58:17.752Z,0.70
2017-12-17T19:00:45.301Z,0.70
2017-12-17T19:03:12.845Z,0.70
2017-12-17T19:05:40.400Z,0.60
2017-12-17T19:08:07.949Z,0.60
2017-12-17T19:10:36.261Z,0.60
2017-12-17T19:13:03.797Z,0.60
2017-12-17T19:15:31.340Z,0.60
2017-12-17T19:17:59.682Z,0.60
2017-12-17T19:20:27.228Z,0.60
2017-12-17T19:22:54.773Z,0.60
2017-12-17T19:25:22.365Z,0.60
2017-12-17T19:27:49.926Z,0.60
2017-12-17T19:30:17.490Z,0.60
2017-12-17T19:32:45.058Z,0.60
2017-12-17T19:35:13.385Z,0.50
2017-12-17T19:37:41.496Z,0.50
2017-12-17T19:40:09.042Z,0.60
2017-12-17T19:42:36.616Z,0.60
2017-12-17T19:45:04.144Z,0.50
2017-12-17T19:47:31.696Z,0.50
2017-12-17T19:49:59.266Z,0.50
2017-12-17T19:52:26.846Z,0.50
2017-12-17T19:54:54.413Z,0.50
2017-12-17T19:57:21.958Z,0.40
2017-12-17T19:59:49.499Z,0.40
2017-12-17T20:02:17.049Z,0.50
2017-12-17T20:04:44.574Z,0.40
2017-12-17T20:07:12.124Z,0.40
2017-12-17T20:09:39.672Z,0.40
2017-12-17T20:12:07.997Z,0.30
2017-12-17T20:14:36.857Z,0.30
2017-12-17T20:17:04.393Z,0.40
2017-12-17T20:19:32.728Z,0.40
2017-12-17T20:22:00.261Z,0.40
2017-12-17T20:24:27.825Z,0.40
2017-12-17T20:26:55.373Z,0.40
2017-12-17T20:29:22.922Z,0.40
2017-12-17T20:31:50.475Z,0.40
2017-12-17T20:34:18.034Z,0.40
2017-12-17T20:36:45.634Z,0.30
2017-12-17T20:39:13.259Z,0.40
2017-12-17T20:41:41.574Z,0.30
2017-12-17T20:44:09.140Z,0.30
2017-12-17T20:46:36.676Z,0.30
2017-12-17T20:49:04.205Z,0.30
2017-12-17T20:51:32.561Z,0.40
2017-12-17T20:54:00.108Z,0.40
2017-12-17T20:56:27.652Z,0.40
2017-12-17T20:58:55.196Z,0.40
2017-12-17T21:01:22.739Z,0.40
2017-12-17T21:03:50.265Z,0.40
2017-12-17T21:06:17.812Z,0.40
2017-12-17T21:08:45.358Z,0.40
2017-12-17T21:11:13.000Z,0.30
2017-12-17T21:13:40.528Z,0.30
2017-12-17T21:16:08.862Z,0.40
2017-12-17T21:18:36.402Z,0.40
2017-12-17T21:21:03.953Z,0.40
2017-12-17T21:23:31.502Z,0.40
2017-12-17T21:25:59.089Z,0.50
2017-12-17T21:28:26.659Z,0.40
2017-12-17T21:30:54.218Z,0.40
2017-12-17T21:33:21.771Z,0.40
2017-12-17T21:35:49.316Z,0.50
2017-12-17T21:38:16.876Z,0.40
2017-12-17T21:40:44.412Z,0.40
2017-12-17T21:43:11.970Z,0.40
2017-12-17T21:45:39.541Z,0.40
2017-12-17T21:48:07.068Z,0.40
2017-12-17T21:50:34.609Z,0.40
2017-12-17T21:53:02.153Z,0.40
2017-12-17T21:55:29.709Z,0.50
2017-12-17T21:57:57.266Z,0.50
2017-12-17T22:00:24.802Z,0.50
2017-12-17T22:02:52.405Z,0.50
2017-12-17T22:05:19.929Z,0.40
2017-12-17T22:07:48.346Z,0.40
2017-12-17T22:10:16.684Z,0.50
2017-12-17T22:12:45.011Z,0.50
2017-12-17T22:15:12.536Z,0.50
2017-12-17T22:17:40.078Z,0.50
2017-12-17T22:20:07.618Z,0.50
2017-12-17T22:22:35.932Z,0.50
2017-12-17T22:25:03.498Z,0.40
2017-12-17T22:27:31.053Z,0.40
2017-12-17T22:29:58.593Z,0.40
2017-12-17T22:32:26.156Z,0.40
2017-12-17T22:34:53.740Z,0.30
2017-12-17T22:37:21.304Z,0.30
2017-12-17T22:39:48.852Z,0.30
2017-12-17T22:42:16.401Z,0.30
2017-12-17T22:44:43.934Z,0.30
2017-12-17T22:47:12.252Z,0.40
2017-12-17T22:49:39.780Z,0.40
2017-12-17T22:52:07.368Z,0.30
2017-12-17T22:54:34.913Z,0.40
2017-12-17T22:57:02.558Z,0.30
2017-12-17T22:59:30.116Z,0.30
2017-12-17T23:01:57.640Z,0.30
2017-12-17T23:04:25.194Z,0.30
2017-12-17T23:06:52.741Z,0.30
2017-12-17T23:09:21.924Z,0.30
2017-12-17T23:11:49.450Z,0.30
2017-12-17T23:14:17.857Z,0.40
2017-12-17T23:16:45.381Z,0.40
2017-12-17T23:19:13.718Z,0.30
2017-12-17T23:21:41.249Z,0.30
2017-12-17T23:24:08.794Z,0.40
2017-12-17T23:26:36.353Z,0.40
2017-12-17T23:29:03.918Z,0.40
2017-12-17T23:31:31.457Z,0.30
2017-12-17T23:33:59.025Z,0.30
2017-12-17T23:36:26.577Z,0.20
2017-12-17T23:38:54.157Z,0.20
2017-12-17T23:41:21.693Z,0.20
2017-12-17T23:43:49.260Z,0.20
2017-12-17T23:46:16.813Z,0.20
2017-12-17T23:48:44.343Z,0.20
2017-12-17T23:51:11.896Z,0.20
2017-12-17T23:53:40.180Z,0.10
2017-12-17T23:56:08.509Z,0.10
2017-12-17T23:58:36.029Z,0.10
